Time;durP1;ratioP1;P1;durP2;ratioP2;P2;SDS_P1;SDS_P2;PMS_P1;PMS_P2;Temp;Humidity;BMP_temperature;BMP_pressure;BME280_temperature;BME280_humidity;BME280_pressure;Samples;Min_cycle;Max_cycle;Signal;HPM_P1;HPM_P2
2022/01/17 00:01:06;;;;;;;13.23;5.72;;;;;;;-3.67;100.00;103186.69;5016622;28;20036;-81
2022/01/17 00:03:32;;;;;;;7.68;5.10;;;;;;;-3.61;100.00;103199.72;5062375;28;20028;-78
2022/01/17 00:05:58;;;;;;;11.52;5.80;;;;;;;-3.62;100.00;103200.63;5065439;28;20042;-81
2022/01/17 00:08:24;;;;;;;15.43;5.88;;;;;;;-3.62;100.00;103202.41;5034390;28;20127;-79
2022/01/17 00:10:49;;;;;;;13.18;6.20;;;;;;;-3.69;100.00;103198.13;5013389;28;20433;-78
2022/01/17 00:13:24;;;;;;;17.58;5.40;;;;;;;-3.73;100.00;103205.19;5066365;28;20115;-83
2022/01/17 00:15:55;;;;;;;10.05;4.38;;;;;;;-3.80;100.00;103214.06;5026125;28;20121;-79
2022/01/17 00:18:28;;;;;;;10.23;5.03;;;;;;;-3.87;100.00;103202.75;5026734;28;20497;-77
2022/01/17 00:20:56;;;;;;;3.60;1.90;;;;;;;-3.76;100.00;103210.47;5050674;28;20028;-77
2022/01/17 00:23:22;;;;;;;11.30;4.65;;;;;;;-3.77;100.00;103204.34;5058104;28;20036;-83
2022/01/17 00:25:47;;;;;;;11.57;4.97;;;;;;;-3.74;100.00;103220.97;5046766;28;20043;-79
2022/01/17 00:28:13;;;;;;;11.80;4.63;;;;;;;-3.80;100.00;103222.81;5055717;28;20016;-82
2022/01/17 00:30:39;;;;;;;7.88;4.97;;;;;;;-3.85;100.00;103218.50;5012335;28;20036;-81
2022/01/17 00:33:04;;;;;;;6.80;4.30;;;;;;;-3.95;100.00;103219.53;5029229;28;20089;-83
2022/01/17 00:35:30;;;;;;;13.27;4.57;;;;;;;-3.92;100.00;103220.34;5029910;28;20435;-85
2022/01/17 00:37:56;;;;;;;12.80;5.10;;;;;;;-3.99;100.00;103223.97;5037057;28;20036;-80
2022/01/17 00:40:22;;;;;;;9.65;4.38;;;;;;;-4.00;100.00;103228.34;5012701;28;20527;-80
2022/01/17 00:42:48;;;;;;;6.53;3.95;;;;;;;-3.99;100.00;103218.72;5032096;28;20047;-80
2022/01/17 00:45:15;;;;;;;7.72;4.00;;;;;;;-3.95;100.00;103233.53;5032999;28;20479;-84
2022/01/17 00:47:41;;;;;;;14.45;5.05;;;;;;;-4.30;100.00;103178.84;5047022;28;20032;-84
2022/01/17 00:50:08;;;;;;;8.90;4.38;;;;;;;-3.98;100.00;103230.94;5065903;28;20459;-77
2022/01/17 00:52:33;;;;;;;6.45;4.10;;;;;;;-3.95;100.00;103225.66;5049944;28;20357;-78
2022/01/17 00:54:59;;;;;;;14.18;4.68;;;;;;;-3.91;100.00;103210.72;5033762;28;20024;-79
2022/01/17 00:57:25;;;;;;;12.52;5.47;;;;;;;-3.90;100.00;103226.44;5026787;28;20111;-79
2022/01/17 00:59:50;;;;;;;12.13;5.70;;;;;;;-3.97;100.00;103224.78;5048087;28;20062;-79
2022/01/17 01:02:17;;;;;;;17.33;6.85;;;;;;;-3.82;100.00;103235.09;5063797;28;20028;-80
2022/01/17 01:04:42;;;;;;;14.77;6.00;;;;;;;-3.87;100.00;103215.03;5042358;28;20446;-80
2022/01/17 01:07:08;;;;;;;9.73;5.20;;;;;;;-3.77;100.00;103245.56;5045359;28;20032;-82
2022/01/17 01:09:42;;;;;;;3.90;3.45;;;;;;;-3.74;100.00;103228.88;5044468;28;20028;-79
2022/01/17 01:12:08;;;;;;;8.20;3.35;;;;;;;-3.64;100.00;103233.09;5049416;28;20139;-80
2022/01/17 01:14:34;;;;;;;11.75;5.18;;;;;;;-3.71;100.00;103226.19;5015261;28;20671;-76
2022/01/17 01:17:07;;;;;;;14.07;6.10;;;;;;;-3.79;100.00;103229.78;5030837;28;20116;-76
2022/01/17 01:19:40;;;;;;;12.10;4.60;;;;;;;-4.14;100.00;103176.88;5025435;28;20040;-80
2022/01/17 01:30:09;;;;;;;9.05;4.97;;;;;;;-4.01;100.00;103231.88;5029706;28;20036;-82
2022/01/17 01:32:43;;;;;;;8.90;3.60;;;;;;;-4.04;100.00;103229.28;5045165;28;20109;-82
2022/01/17 01:35:12;;;;;;;;;;;;;;;-3.98;100.00;103237.06;5030090;28;20036;-78
2022/01/17 01:37:38;;;;;;;10.73;5.18;;;;;;;-3.98;100.00;103223.94;5015400;28;19920;-78
2022/01/17 01:40:04;;;;;;;8.32;4.75;;;;;;;-4.08;100.00;103230.19;5013905;28;20036;-82
2022/01/17 01:42:32;;;;;;;7.13;4.05;;;;;;;-4.21;100.00;103226.00;5046071;28;20040;-77
2022/01/17 01:44:58;;;;;;;6.15;3.67;;;;;;;-4.09;100.00;103225.84;5047678;28;20047;-79
2022/01/17 01:47:26;;;;;;;6.45;2.67;;;;;;;-4.08;100.00;103217.06;5027668;28;20032;-78
2022/01/17 01:49:51;;;;;;;10.48;4.00;;;;;;;-4.06;100.00;103220.53;5030425;28;20099;-81
2022/01/17 01:52:17;;;;;;;10.15;3.83;;;;;;;-4.14;100.00;103221.53;5029486;28;20037;-77
2022/01/17 01:54:43;;;;;;;7.25;3.88;;;;;;;-4.11;100.00;103234.63;5024491;28;20102;-79
2022/01/17 01:57:09;;;;;;;2.03;1.80;;;;;;;-4.07;100.00;103229.31;5032446;28;20036;-83
2022/01/17 01:59:37;;;;;;;9.23;4.30;;;;;;;-3.96;100.00;103231.81;5047840;28;20455;-78
2022/01/17 02:02:04;;;;;;;10.73;3.63;;;;;;;-3.97;100.00;103235.31;5031854;28;20529;-78
2022/01/17 02:04:30;;;;;;;7.25;4.43;;;;;;;-4.09;100.00;103219.72;5054543;28;20033;-80
2022/01/17 02:06:56;;;;;;;2.55;2.03;;;;;;;-3.96;100.00;103234.44;5047495;28;20398;-77
2022/01/17 02:09:24;;;;;;;12.13;4.30;;;;;;;-3.95;100.00;103236.16;5030818;28;20380;-80
2022/01/17 02:11:50;;;;;;;8.05;4.35;;;;;;;-3.96;100.00;103241.47;5032620;28;20459;-78
2022/01/17 02:14:19;;;;;;;8.75;4.45;;;;;;;-3.95;100.00;103236.16;5016410;28;20048;-85
2022/01/17 02:16:47;;;;;;;6.32;3.42;;;;;;;-3.91;100.00;103229.97;5044848;28;20167;-77
2022/01/17 02:19:13;;;;;;;14.48;4.55;;;;;;;-3.94;100.00;103226.50;5028935;28;20072;-78
2022/01/17 02:21:48;;;;;;;10.57;3.88;;;;;;;-3.96;100.00;103230.94;5028762;28;20037;-79
2022/01/17 02:24:16;;;;;;;6.70;2.90;;;;;;;-3.95;100.00;103224.78;5027128;28;20033;-78
2022/01/17 02:26:42;;;;;;;13.82;4.22;;;;;;;-3.79;100.00;103218.41;5039918;28;20036;-77
2022/01/17 02:29:08;;;;;;;7.57;2.72;;;;;;;-3.74;100.00;103224.47;5033325;28;20078;-80
2022/01/17 02:31:34;;;;;;;12.20;5.03;;;;;;;-3.70;100.00;103238.47;5024570;28;20040;-78
2022/01/17 02:34:01;;;;;;;8.43;4.32;;;;;;;-3.72;100.00;103243.72;5028071;28;20036;-78
2022/01/17 02:36:27;;;;;;;6.35;3.20;;;;;;;-3.78;100.00;103236.81;5048338;28;20532;-80
2022/01/17 02:38:53;;;;;;;9.65;3.83;;;;;;;-3.66;100.00;103246.25;5045824;28;20040;-79
2022/01/17 02:41:21;;;;;;;12.23;4.80;;;;;;;-3.59;100.00;103237.38;5028916;28;20047;-78
2022/01/17 02:43:47;;;;;;;8.82;4.90;;;;;;;-3.50;100.00;103232.88;5046505;28;20020;-80
2022/01/17 02:48:41;;;;;;;11.50;4.45;;;;;;;-3.59;100.00;103241.78;5043293;28;20047;-81
2022/01/17 02:51:11;;;;;;;13.23;4.45;;;;;;;-3.67;100.00;103247.16;5043623;28;20037;-80
2022/01/17 02:53:39;;;;;;;2.67;2.25;;;;;;;-3.72;100.00;103234.97;5028979;28;20670;-81
2022/01/17 02:56:06;;;;;;;7.45;3.65;;;;;;;-3.65;100.00;103236.59;5044884;28;20042;-81
2022/01/17 02:58:34;;;;;;;7.53;3.30;;;;;;;-3.53;100.00;103234.66;5009981;28;20132;-83
2022/01/17 03:01:04;;;;;;;8.25;4.25;;;;;;;-3.47;100.00;103235.44;5039069;28;20056;-82
2022/01/17 03:03:30;;;;;;;2.22;1.40;;;;;;;-3.60;100.00;103227.78;5057904;28;20034;-82
2022/01/17 03:05:57;;;;;;;9.63;5.00;;;;;;;-3.47;100.00;103241.56;5065511;28;20068;-81
2022/01/17 03:08:25;;;;;;;17.60;5.40;;;;;;;-3.44;100.00;103232.78;5012377;28;20048;-77
2022/01/17 03:10:53;;;;;;;15.52;5.45;;;;;;;-3.30;100.00;103243.09;5050357;28;20028;-78
2022/01/17 03:13:29;;;;;;;13.82;5.60;;;;;;;-3.23;100.00;103240.31;5017088;28;20506;-77
2022/01/17 03:15:59;;;;;;;13.07;5.20;;;;;;;-3.23;100.00;103227.16;5031691;28;20109;-76
2022/01/17 03:18:28;;;;;;;8.88;5.13;;;;;;;-3.23;100.00;103236.81;5044460;28;20083;-78
2022/01/17 03:20:54;;;;;;;7.93;2.85;;;;;;;-3.35;100.00;103245.78;5051628;28;20029;-78
2022/01/17 03:23:19;;;;;;;10.52;4.38;;;;;;;-3.30;100.00;103248.34;5033993;28;20054;-81
2022/01/17 03:25:45;;;;;;;3.00;1.95;;;;;;;-3.22;100.00;103242.06;5042627;28;20056;-80
2022/01/17 03:28:11;;;;;;;9.75;5.40;;;;;;;-3.22;100.00;103242.06;5028816;28;20516;-80
2022/01/17 03:30:37;;;;;;;6.88;3.75;;;;;;;-3.24;100.00;103242.97;5017618;28;20036;-80
2022/01/17 03:33:04;;;;;;;14.50;6.22;;;;;;;-3.23;100.00;103234.19;5012048;28;20124;-78
2022/01/17 03:35:30;;;;;;;15.10;5.95;;;;;;;-3.29;100.00;103231.66;5042788;28;20041;-82
2022/01/17 03:37:56;;;;;;;16.73;6.00;;;;;;;-3.26;100.00;103237.72;5041782;28;20032;-79
2022/01/17 03:40:29;;;;;;;16.83;5.90;;;;;;;-3.25;100.00;103236.00;5034058;28;20041;-79
2022/01/17 03:42:54;;;;;;;14.00;5.97;;;;;;;-3.35;100.00;103235.25;5046949;28;20109;-80
2022/01/17 03:45:20;;;;;;;16.40;7.07;;;;;;;-3.49;100.00;103224.06;5029746;28;20471;-82
2022/01/17 03:47:50;;;;;;;11.75;5.50;;;;;;;-3.66;100.00;103214.69;5012421;28;20470;-80
2022/01/17 03:50:18;;;;;;;10.65;5.30;;;;;;;-3.55;100.00;103230.31;5033493;28;20086;-78
2022/01/17 03:52:44;;;;;;;12.75;6.43;;;;;;;-3.57;100.00;103240.88;5031418;28;20032;-79
2022/01/17 03:55:13;;;;;;;12.30;5.53;;;;;;;-3.73;100.00;103228.84;5012752;28;20319;-80
2022/01/17 03:57:41;;;;;;;9.23;3.70;;;;;;;-3.72;100.00;103232.34;5014543;28;20071;-77
2022/01/17 04:00:08;;;;;;;3.13;2.92;;;;;;;-3.66;100.00;103222.59;5028993;28;20087;-76
2022/01/17 04:02:34;;;;;;;15.05;6.30;;;;;;;-3.44;100.00;103219.63;5015675;28;20024;-78
2022/01/17 04:04:59;;;;;;;19.13;7.15;;;;;;;-3.48;100.00;103217.94;5033346;28;20054;-79
2022/01/17 04:07:25;;;;;;;16.48;6.85;;;;;;;-3.58;100.00;103233.84;5033430;28;20511;-77
2022/01/17 04:09:51;;;;;;;14.35;6.97;;;;;;;-3.58;100.00;103217.22;5015200;28;20127;-79
2022/01/17 04:12:17;;;;;;;17.55;6.68;;;;;;;-3.50;100.00;103215.31;5031361;28;20401;-81
2022/01/17 04:14:42;;;;;;;6.88;3.92;;;;;;;-3.53;100.00;103210.97;5062263;28;20104;-77
2022/01/17 04:17:08;;;;;;;5.63;3.45;;;;;;;-3.43;100.00;103213.47;5045083;28;20075;-78
2022/01/17 04:19:34;;;;;;;18.60;8.27;;;;;;;-3.41;100.00;103182.78;5029633;28;20082;-79
2022/01/17 04:22:00;;;;;;;15.70;8.30;;;;;;;-3.43;100.00;103213.47;5046967;28;20421;-78
2022/01/17 04:24:26;;;;;;;14.20;7.35;;;;;;;-3.68;100.00;103203.34;5042687;28;20037;-84
2022/01/17 04:26:52;;;;;;;15.80;7.88;;;;;;;-3.76;100.00;103218.34;5066025;28;20043;-80
2022/01/17 04:29:19;;;;;;;9.82;6.35;;;;;;;-3.78;100.00;103212.28;5024879;28;20033;-78
2022/01/17 04:31:45;;;;;;;15.23;6.55;;;;;;;-3.74;100.00;103203.44;5045836;28;20032;-81
2022/01/17 04:34:10;;;;;;;14.55;6.78;;;;;;;-3.77;100.00;103196.47;5030283;28;20036;-82
2022/01/17 04:36:36;;;;;;;14.00;6.63;;;;;;;-3.61;100.00;103204.97;5040977;28;20028;-78
2022/01/17 04:39:02;;;;;;;15.68;6.95;;;;;;;-3.73;100.00;103171.03;5030309;28;20047;-81
2022/01/17 04:41:37;;;;;;;13.50;7.00;;;;;;;-3.52;100.00;103201.31;5067839;28;20046;-82
2022/01/17 04:46:47;;;;;;;24.75;7.30;;;;;;;-3.52;100.00;103206.59;5045953;28;20070;-83
2022/01/17 04:49:13;;;;;;;14.55;6.25;;;;;;;-3.51;100.00;103203.09;5065388;28;20106;-81
2022/01/17 04:51:39;;;;;;;25.95;6.60;;;;;;;-3.49;100.00;103206.56;5029364;28;20036;-84
2022/01/17 04:56:48;;;;;;;10.63;6.22;;;;;;;-3.51;100.00;103203.09;5049446;28;20029;-78
2022/01/17 04:59:13;;;;;;;4.68;3.88;;;;;;;-3.47;100.00;103198.63;5063595;28;20025;-78
2022/01/17 05:01:39;;;;;;;15.27;6.82;;;;;;;-3.29;100.00;103194.81;5063496;28;20474;-78
2022/01/17 05:04:05;;;;;;;12.48;5.68;;;;;;;-3.29;100.00;103202.72;5062164;28;20082;-79
2022/01/17 05:06:30;;;;;;;9.75;4.05;;;;;;;-3.35;100.00;103183.50;5024153;28;20505;-79
2022/01/17 05:08:56;;;;;;;11.23;6.13;;;;;;;-3.25;100.00;103193.91;5032885;28;20048;-77
2022/01/17 05:11:25;;;;;;;11.25;6.28;;;;;;;-3.26;100.00;103190.38;5044985;28;20037;-80
2022/01/17 05:13:51;;;;;;;15.10;7.55;;;;;;;-3.25;100.00;103184.22;5023488;28;20401;-78
2022/01/17 05:16:21;;;;;;;6.57;3.72;;;;;;;-3.21;100.00;103185.03;5029206;28;20032;-79
2022/01/17 05:21:13;;;;;;;17.45;6.32;;;;;;;-3.07;100.00;103190.03;5043837;28;20028;-80
2022/01/17 05:23:42;;;;;;;20.85;6.80;;;;;;;-3.07;100.00;103185.63;5047663;28;20500;-78
2022/01/17 05:26:08;;;;;;;16.15;7.07;;;;;;;-3.01;100.00;103189.94;5046520;28;20143;-80
2022/01/17 05:28:34;;;;;;;12.68;6.72;;;;;;;-3.10;100.00;103189.22;5064883;28;20067;-78
2022/01/17 05:31:00;;;;;;;10.68;6.03;;;;;;;-3.18;100.00;103179.72;5030967;28;20086;-79
2022/01/17 05:33:25;;;;;;;10.25;5.38;;;;;;;-3.04;100.00;103163.66;5042527;28;20102;-80
2022/01/17 05:35:51;;;;;;;13.40;6.53;;;;;;;-2.93;100.00;103165.22;5043567;28;20021;-80
2022/01/17 05:38:17;;;;;;;13.88;5.03;;;;;;;-3.00;100.00;103167.97;5042431;28;20040;-80
2022/01/17 05:40:42;;;;;;;9.07;5.60;;;;;;;-3.01;100.00;103168.91;5024496;28;20032;-87
2022/01/17 05:43:08;;;;;;;14.55;6.80;;;;;;;-2.85;100.00;103172.09;5033103;28;20029;-77
2022/01/17 05:45:34;;;;;;;8.20;3.75;;;;;;;-2.80;100.00;103172.88;5024361;28;20367;-84
2022/01/17 05:48:00;;;;;;;17.10;8.02;;;;;;;-2.87;100.00;103172.13;5067805;28;20043;-78
2022/01/17 05:50:26;;;;;;;8.23;3.67;;;;;;;-2.99;100.00;103160.06;5032977;28;20032;-78
2022/01/17 05:52:51;;;;;;;19.88;8.27;;;;;;;-2.87;100.00;103164.22;5042562;28;20098;-77
2022/01/17 05:55:17;;;;;;;4.28;2.28;;;;;;;-2.87;100.00;103164.22;5029534;28;20028;-79
2022/01/17 05:57:43;;;;;;;17.85;7.15;;;;;;;-2.98;100.00;103164.44;5027335;28;20459;-80
2022/01/17 06:00:14;;;;;;;23.10;8.32;;;;;;;-3.19;100.00;103170.09;5014375;28;20036;-77
2022/01/17 06:02:40;;;;;;;14.50;6.38;;;;;;;-3.26;100.00;103165.81;5031603;28;20031;-77
2022/01/17 06:05:06;;;;;;;5.05;3.90;;;;;;;-3.35;100.00;103166.88;5033606;28;20032;-87
2022/01/17 06:07:32;;;;;;;7.13;4.18;;;;;;;-3.24;100.00;103175.44;5057534;28;20059;-76
2022/01/17 06:09:58;;;;;;;14.30;7.13;;;;;;;-3.06;100.00;103181.28;5042057;28;20510;-79
2022/01/17 06:12:26;;;;;;;32.17;8.75;;;;;;;-3.06;100.00;103174.22;5064393;28;20114;-78
2022/01/17 06:14:52;;;;;;;12.00;6.35;;;;;;;-3.18;100.00;103180.56;5021923;28;20024;-77
2022/01/17 06:17:20;;;;;;;14.30;6.20;;;;;;;-3.21;100.00;103178.00;5025910;28;20478;-79
2022/01/17 06:19:46;;;;;;;22.17;7.45;;;;;;;-3.16;100.00;103184.06;5032684;28;20056;-77
2022/01/17 06:22:12;;;;;;;13.65;7.32;;;;;;;-3.26;100.00;103193.00;5013921;28;20044;-78
2022/01/17 06:24:37;;;;;;;18.05;8.10;;;;;;;-3.34;100.00;103184.38;5041536;28;20047;-84
2022/01/17 06:27:03;;;;;;;8.85;5.53;;;;;;;-3.44;100.00;103181.06;5029512;28;20035;-80
2022/01/17 06:29:29;;;;;;;27.88;7.75;;;;;;;-3.46;100.00;103193.34;5013172;28;20636;-84
2022/01/17 06:31:55;;;;;;;19.52;6.70;;;;;;;-3.48;100.00;103187.25;5047313;28;20387;-76
2022/01/17 06:34:21;;;;;;;11.23;5.40;;;;;;;-3.57;100.00;103184.78;5009109;28;20382;-78
2022/01/17 06:36:46;;;;;;;7.88;2.97;;;;;;;-3.58;100.00;103204.06;5007411;28;20436;-83
2022/01/17 06:39:12;;;;;;;13.45;6.65;;;;;;;-3.55;100.00;103202.28;5069112;28;20488;-79
2022/01/17 06:41:38;;;;;;;13.95;5.88;;;;;;;-3.45;100.00;103218.75;5031180;28;20041;-76
2022/01/17 06:44:05;;;;;;;8.68;4.35;;;;;;;-3.41;100.00;103225.72;5051114;28;20063;-78
2022/01/17 06:46:30;;;;;;;18.25;6.15;;;;;;;-3.54;100.00;103214.53;5016540;28;20486;-78
2022/01/17 06:48:56;;;;;;;6.82;3.80;;;;;;;-3.55;100.00;103239.09;5016697;28;20032;-77
2022/01/17 06:51:22;;;;;;;13.80;5.68;;;;;;;-3.53;100.00;103239.06;5033784;28;20029;-85
2022/01/17 06:53:48;;;;;;;16.65;6.18;;;;;;;-3.53;100.00;103220.66;5048021;28;20425;-80
2022/01/17 06:56:14;;;;;;;16.73;4.70;;;;;;;-3.60;100.00;103197.97;5049592;28;20032;-79
2022/01/17 06:58:42;;;;;;;9.23;4.93;;;;;;;-3.51;100.00;103210.97;5014066;28;20028;-80
2022/01/17 07:01:08;;;;;;;8.43;5.32;;;;;;;-3.41;100.00;103191.53;5046637;28;20033;-80
2022/01/17 07:03:34;;;;;;;19.33;5.53;;;;;;;-3.38;100.00;103195.88;5067903;28;20115;-87
2022/01/17 07:06:02;;;;;;;13.52;5.68;;;;;;;-3.50;100.00;103177.66;5068417;28;20131;-79
2022/01/17 07:08:28;;;;;;;16.27;5.78;;;;;;;-3.50;100.00;103175.00;5013736;28;20031;-77
2022/01/17 07:10:54;;;;;;;14.45;4.78;;;;;;;-3.51;100.00;103187.31;5047399;28;20025;-78
2022/01/17 07:13:20;;;;;;;8.30;3.60;;;;;;;-3.50;100.00;103181.13;5039128;28;20405;-77
2022/01/17 07:15:45;;;;;;;14.20;5.65;;;;;;;-3.40;100.00;103181.88;5064287;28;20037;-86
2022/01/17 07:18:12;;;;;;;8.10;4.68;;;;;;;-3.37;100.00;103185.28;5064467;28;20596;-79
2022/01/17 07:20:38;;;;;;;19.52;4.47;;;;;;;-3.35;100.00;103190.53;5045660;28;20040;-78
2022/01/17 07:23:04;;;;;;;20.70;4.68;;;;;;;-3.27;100.00;103206.19;5013153;28;20024;-77
2022/01/17 07:25:30;;;;;;;7.97;4.78;;;;;;;-3.21;100.00;103201.69;5045957;28;20462;-79
2022/01/17 07:27:57;;;;;;;15.82;4.55;;;;;;;-3.22;100.00;103212.25;5016352;28;20483;-83
2022/01/17 07:30:23;;;;;;;11.98;5.47;;;;;;;-3.32;100.00;103195.75;5029397;28;20037;-80
2022/01/17 07:32:49;;;;;;;12.85;4.70;;;;;;;-3.55;100.00;103181.25;5044134;28;20036;-86
2022/01/17 07:35:15;;;;;;;10.88;4.60;;;;;;;-3.50;100.00;103185.53;5063944;28;20489;-80
2022/01/17 07:37:40;;;;;;;6.53;3.05;;;;;;;-3.46;100.00;103176.72;5044395;28;20017;-80
2022/01/17 07:40:07;;;;;;;15.23;4.68;;;;;;;-3.51;100.00;103175.91;5018499;28;20509;-78
2022/01/17 07:42:33;;;;;;;10.57;4.03;;;;;;;-3.55;100.00;103189.13;5016916;28;20497;-76
2022/01/17 07:45:08;;;;;;;8.07;3.97;;;;;;;-3.62;100.00;103187.47;5016220;28;20447;-80
2022/01/17 07:47:56;;;;;;;2.50;1.77;;;;;;;-3.64;100.00;103181.38;5028823;28;20097;-80
2022/01/17 07:50:22;;;;;;;11.25;3.80;;;;;;;-3.73;100.00;103181.53;5061753;28;20506;-84
2022/01/17 07:52:49;;;;;;;11.23;3.80;;;;;;;-3.77;100.00;103191.22;5062655;28;20060;-78
2022/01/17 07:55:15;;;;;;;8.52;3.95;;;;;;;-3.80;100.00;103195.66;5017905;28;20032;-77
2022/01/17 07:57:41;;;;;;;9.05;3.75;;;;;;;-3.78;100.00;103194.75;5030934;28;20095;-77
2022/01/17 08:00:10;;;;;;;8.93;4.35;;;;;;;-3.76;100.00;103184.19;5054522;28;20043;-79
2022/01/17 08:02:36;;;;;;;12.88;3.97;;;;;;;-3.79;100.00;103182.47;5019156;28;20055;-79
2022/01/17 08:05:03;;;;;;;18.02;3.88;;;;;;;-3.81;100.00;103191.28;5036478;28;20052;-76
2022/01/17 08:07:29;;;;;;;9.35;3.53;;;;;;;-3.75;100.00;103183.31;5051315;28;20024;-81
2022/01/17 08:09:54;;;;;;;9.60;3.38;;;;;;;-3.72;100.00;103199.03;5025153;28;20028;-77
2022/01/17 08:12:20;;;;;;;1.88;1.40;;;;;;;-4.01;100.00;103153.03;5054027;28;20032;-78
2022/01/17 08:14:46;;;;;;;17.20;5.38;;;;;;;-3.87;100.00;103194.88;5036243;28;20470;-78
2022/01/17 08:17:12;;;;;;;8.30;3.85;;;;;;;-3.97;100.00;103209.03;5036862;28;20058;-76
2022/01/17 08:19:38;;;;;;;12.02;3.15;;;;;;;-4.13;100.00;103213.63;5036634;28;20032;-80
2022/01/17 08:22:05;;;;;;;5.68;3.08;;;;;;;-4.11;100.00;103224.13;5033758;28;20086;-76
2022/01/17 08:24:35;;;;;;;9.13;3.75;;;;;;;-4.15;100.00;103223.31;5062946;28;20398;-77
2022/01/17 08:27:01;;;;;;;8.65;2.97;;;;;;;-4.21;100.00;103216.38;5044826;28;20444;-77
2022/01/17 08:29:28;;;;;;;9.82;3.97;;;;;;;-4.29;100.00;103223.47;5046314;28;20536;-78
2022/01/17 08:31:58;;;;;;;8.85;3.72;;;;;;;-4.16;100.00;103231.19;5031474;28;20423;-77
2022/01/17 08:34:24;;;;;;;13.15;4.95;;;;;;;-4.09;100.00;103244.25;5033482;28;20419;-79
2022/01/17 08:36:50;;;;;;;10.32;4.00;;;;;;;-4.16;100.00;103239.94;5030139;28;20029;-77
2022/01/17 08:39:16;;;;;;;22.95;5.72;;;;;;;-4.17;100.00;103239.97;5027457;28;20573;-76
2022/01/17 08:41:42;;;;;;;14.88;4.05;;;;;;;-4.14;100.00;103243.44;5035516;28;20044;-78
2022/01/17 08:44:10;;;;;;;14.05;4.32;;;;;;;-4.05;100.00;103238.06;5016025;28;20090;-79
2022/01/17 08:46:35;;;;;;;12.38;4.63;;;;;;;-3.86;100.00;103248.31;5018978;28;20132;-77
2022/01/17 08:49:01;;;;;;;13.52;5.28;;;;;;;-3.79;100.00;103244.69;5020252;28;20029;-77
2022/01/17 08:51:27;;;;;;;15.70;5.32;;;;;;;-3.70;100.00;103251.59;5017640;28;20509;-83
2022/01/17 08:53:52;;;;;;;17.58;5.45;;;;;;;-3.67;100.00;103249.78;5029473;28;20028;-76
2022/01/17 08:56:18;;;;;;;8.93;4.30;;;;;;;-3.42;100.00;103259.91;5045140;28;20033;-77
2022/01/17 08:58:44;;;;;;;11.82;4.57;;;;;;;-3.25;100.00;103263.16;5040251;28;20490;-82
2022/01/17 09:01:13;;;;;;;16.00;5.15;;;;;;;-3.11;100.00;103271.69;5050105;28;20159;-77
2022/01/17 09:03:40;;;;;;;10.57;3.65;;;;;;;-2.90;100.00;103259.91;5033198;28;20037;-76
2022/01/17 09:06:06;;;;;;;16.98;3.80;;;;;;;-2.72;100.00;103252.59;5032876;28;20032;-78
2022/01/17 09:08:31;;;;;;;13.35;3.63;;;;;;;-2.47;100.00;103247.72;5018090;28;20035;-79
2022/01/17 09:10:58;;;;;;;16.17;6.30;;;;;;;-2.51;100.00;103210.03;5025193;28;20032;-77
2022/01/17 09:13:58;;;;;;;5.15;2.75;;;;;;;-2.04;100.00;103252.09;5034539;28;20032;-79
2022/01/17 09:16:54;;;;;;;10.38;3.97;;;;;;;-2.18;100.00;103198.81;5027836;28;20606;-83
2022/01/17 09:19:36;;;;;;;9.60;3.95;;;;;;;-2.03;100.00;103190.56;5035811;28;20071;-76
2022/01/17 09:22:10;;;;;;;9.70;4.20;;;;;;;-1.85;100.00;103195.41;5026797;28;20486;-78
2022/01/17 09:24:38;;;;;;;5.50;3.30;;;;;;;-1.67;100.00;103190.59;5041801;28;20025;-80
2022/01/17 09:27:05;;;;;;;9.48;3.83;;;;;;;-1.13;100.00;103264.91;5017748;28;20032;-81
2022/01/17 09:29:31;;;;;;;13.55;4.03;;;;;;;-0.99;100.00;103275.13;5017252;28;20474;-78
2022/01/17 09:31:57;;;;;;;3.80;2.47;;;;;;;-0.89;100.00;103260.75;5030543;28;20029;-80
2022/01/17 09:34:23;;;;;;;12.50;4.97;;;;;;;-0.73;100.00;103253.31;5019409;28;20051;-83
2022/01/17 09:36:48;;;;;;;15.98;4.18;;;;;;;-0.51;100.00;103245.63;5017800;28;20037;-78
2022/01/17 09:39:15;;;;;;;15.18;4.18;;;;;;;-0.13;100.00;103256.91;5048042;28;20059;-78
2022/01/17 09:41:41;;;;;;;11.63;3.95;;;;;;;-0.31;100.00;103260.09;5026350;28;20040;-77
2022/01/17 09:44:09;;;;;;;5.60;3.10;;;;;;;-0.40;100.00;103257.69;5021944;28;20391;-77
2022/01/17 09:46:40;;;;;;;8.55;4.10;;;;;;;-0.43;100.00;103252.50;5016003;28;20036;-79
2022/01/17 09:49:48;;;;;;;22.73;3.47;;;;;;;-0.38;100.00;103261.16;5033601;28;20485;-78
2022/01/17 09:54:51;;;;;;;10.32;3.90;;;;;;;-0.35;100.00;103264.56;5051819;28;20036;-82
2022/01/17 09:57:18;;;;;;;8.02;3.63;;;;;;;-0.36;100.00;103256.72;5032693;28;20032;-78
2022/01/17 09:59:44;;;;;;;12.30;3.50;;;;;;;-0.29;100.00;103258.25;5031195;28;20029;-79
2022/01/17 10:02:11;;;;;;;7.55;3.97;;;;;;;-0.24;100.00;103259.88;5050974;28;20087;-82
2022/01/17 10:04:40;;;;;;;14.80;3.80;;;;;;;-0.18;100.00;103264.13;5022321;28;20059;-81
2022/01/17 10:07:08;;;;;;;8.70;4.05;;;;;;;-0.14;100.00;103262.22;5039456;28;20043;-81
2022/01/17 10:09:35;;;;;;;14.82;4.57;;;;;;;0.00;100.00;103278.59;5039784;28;20033;-82
2022/01/17 10:12:06;;;;;;;15.77;3.72;;;;;;;0.06;100.00;103285.47;5044506;28;20036;-81
2022/01/17 10:14:39;;;;;;;9.02;3.67;;;;;;;0.13;100.00;103281.69;5033001;28;20033;-82
2022/01/17 10:17:16;;;;;;;14.93;7.50;;;;;;;0.21;100.00;103282.34;5032225;28;20040;-82
2022/01/17 10:19:43;;;;;;;10.88;5.18;;;;;;;0.37;100.00;103275.69;5021547;28;20513;-82
2022/01/17 10:22:19;;;;;;;16.42;8.10;;;;;;;0.51;100.00;103280.53;5011233;28;20036;-82
2022/01/17 10:35:26;;;;;;;15.77;4.55;;;;;;;1.94;100.00;103278.25;5053070;28;20031;-83
2022/01/17 10:38:02;;;;;;;16.83;5.07;;;;;;;2.01;100.00;103265.59;5052830;28;20036;-81
2022/01/17 10:40:33;;;;;;;17.75;5.82;;;;;;;2.16;100.00;103268.50;5068941;28;20037;-82
2022/01/17 10:43:01;;;;;;;13.90;3.92;;;;;;;2.20;100.00;103256.88;5053096;28;20040;-82
2022/01/17 10:45:33;;;;;;;7.95;2.60;;;;;;;2.26;100.00;103257.56;5066564;28;20082;-82
2022/01/17 10:48:01;;;;;;;19.52;6.35;;;;;;;2.40;100.00;103271.13;5040235;28;20630;-78
2022/01/17 10:50:29;;;;;;;17.25;5.65;;;;;;;2.50;100.00;103264.53;5031734;28;20548;-81
2022/01/17 10:52:56;;;;;;;23.95;6.82;;;;;;;2.76;100.00;103275.91;5027271;28;20119;-77
2022/01/17 10:55:25;;;;;;;41.35;13.35;;;;;;;2.99;100.00;103277.56;5071301;28;20032;-78
2022/01/17 10:57:53;;;;;;;31.05;12.52;;;;;;;3.42;100.00;103281.94;5024394;28;20065;-80
2022/01/17 11:00:22;;;;;;;28.90;10.55;;;;;;;3.77;100.00;103279.50;5027951;28;20033;-79
2022/01/17 11:02:57;;;;;;;47.78;16.83;;;;;;;3.97;100.00;103275.94;5031069;28;20110;-80
2022/01/17 11:05:27;;;;;;;45.78;14.43;;;;;;;4.17;100.00;103296.28;5033384;28;20497;-78
2022/01/17 11:07:55;;;;;;;39.38;16.25;;;;;;;4.31;100.00;103295.63;5041328;28;20029;-77
2022/01/17 11:10:21;;;;;;;17.63;8.23;;;;;;;4.40;100.00;103288.06;5066980;28;20379;-81
2022/01/17 11:12:49;;;;;;;34.75;12.95;;;;;;;4.49;100.00;103285.91;5060194;28;20020;-77
2022/01/17 11:15:16;;;;;;;35.63;10.93;;;;;;;4.54;100.00;103286.53;5039294;28;20059;-78
2022/01/17 11:17:49;;;;;;;76.30;23.58;;;;;;;4.52;100.00;103267.09;5034984;28;20078;-77
2022/01/17 11:20:15;;;;;;;38.85;14.65;;;;;;;4.69;100.00;103283.13;5044656;28;20032;-77
2022/01/17 11:22:43;;;;;;;44.40;13.27;;;;;;;4.55;100.00;103275.81;5017380;28;20064;-78
2022/01/17 11:25:17;;;;;;;111.28;33.75;;;;;;;4.59;100.00;103279.19;5048027;28;20051;-85
2022/01/17 11:27:53;;;;;;;56.35;14.48;;;;;;;4.56;100.00;103276.69;5041454;28;20131;-84
2022/01/17 11:30:19;;;;;;;39.53;13.20;;;;;;;4.59;100.00;103281.84;5034849;28;20052;-77
2022/01/17 11:32:46;;;;;;;37.03;14.57;;;;;;;4.61;100.00;103280.84;5020035;28;20037;-83
2022/01/17 11:35:13;;;;;;;50.08;20.05;;;;;;;4.64;100.00;103274.50;5049001;28;20036;-81
2022/01/17 11:37:42;;;;;;;70.45;22.13;;;;;;;4.73;100.00;103265.19;5029772;28;20025;-77
2022/01/17 11:40:09;;;;;;;48.45;15.10;;;;;;;4.73;100.00;103259.84;5049639;28;20044;-83
2022/01/17 11:42:41;;;;;;;42.22;13.82;;;;;;;4.90;100.00;103256.34;5028675;28;20024;-88
2022/01/17 11:45:22;;;;;;;39.25;14.05;;;;;;;5.02;100.00;103261.03;5047554;28;20040;-77